Time;durP1;ratioP1;P1;durP2;ratioP2;P2;SDS_P1;SDS_P2;PMS_P1;PMS_P2;Temp;Humidity;BMP_temperature;BMP_pressure;BME280_temperature;BME280_humidity;BME280_pressure;Samples;Min_cycle;Max_cycle;Signal;HPM_P1;HPM_P2
2023/10/23 00:00:59;;;;;;;4.68;2.25;;;11.50;99.90;;;;;;5012609;28;20168;-62
2023/10/23 00:03:25;;;;;;;6.55;2.40;;;11.50;99.90;;;;;;5011956;28;20590;-60
2023/10/23 00:05:50;;;;;;;4.72;2.38;;;11.50;99.90;;;;;;5012066;28;20627;-62
2023/10/23 00:08:16;;;;;;;4.88;2.13;;;11.50;99.90;;;;;;5012145;28;20533;-59
2023/10/23 00:10:44;;;;;;;5.90;2.17;;;11.50;99.90;;;;;;5011908;28;20707;-62
2023/10/23 00:13:10;;;;;;;7.57;3.75;;;11.50;99.90;;;;;;5012159;28;20195;-62
2023/10/23 00:15:36;;;;;;;4.40;2.35;;;11.40;99.90;;;;;;5011958;28;20206;-61
2023/10/23 00:18:01;;;;;;;2.75;2.22;;;11.50;99.90;;;;;;5012315;28;20168;-62
2023/10/23 00:20:27;;;;;;;9.20;2.80;;;11.40;99.90;;;;;;5012592;28;20258;-59
2023/10/23 00:22:52;;;;;;;6.00;2.60;;;11.40;99.90;;;;;;5012129;28;20635;-62
2023/10/23 00:25:18;;;;;;;4.15;2.33;;;11.30;99.90;;;;;;5011855;28;20176;-59
2023/10/23 00:27:43;;;;;;;5.72;2.45;;;11.40;99.90;;;;;;5011802;28;20171;-61
2023/10/23 00:30:09;;;;;;;6.65;2.78;;;11.40;99.90;;;;;;5011773;28;20168;-61
2023/10/23 00:32:35;;;;;;;6.32;2.42;;;11.40;99.90;;;;;;5010342;28;20210;-60
2023/10/23 00:35:01;;;;;;;2.95;2.20;;;11.40;99.90;;;;;;5012090;28;20298;-57
2023/10/23 00:37:26;;;;;;;7.00;2.63;;;11.40;99.90;;;;;;5011638;28;20226;-61
2023/10/23 00:39:52;;;;;;;4.78;2.30;;;11.30;99.90;;;;;;5011618;28;20199;-59
2023/10/23 00:42:17;;;;;;;6.28;2.50;;;11.30;99.90;;;;;;5011651;28;20184;-63
2023/10/23 00:44:43;;;;;;;7.63;2.60;;;11.30;99.90;;;;;;5011577;28;20175;-61
2023/10/23 00:47:10;;;;;;;6.85;2.63;;;11.20;99.90;;;;;;5011663;28;20183;-59
2023/10/23 00:49:36;;;;;;;6.63;2.38;;;11.20;99.90;;;;;;5015623;28;20168;-60
2023/10/23 00:52:02;;;;;;;5.47;2.10;;;11.20;99.90;;;;;;5014381;28;20601;-55
2023/10/23 00:54:29;;;;;;;3.65;2.22;;;11.20;99.90;;;;;;5016129;28;20577;-59
2023/10/23 00:56:56;;;;;;;3.35;2.03;;;11.10;99.90;;;;;;5015609;28;20687;-53
2023/10/23 00:59:22;;;;;;;6.07;2.35;;;11.10;99.90;;;;;;5015573;28;20254;-54
2023/10/23 01:01:47;;;;;;;4.05;2.70;;;11.10;99.90;;;;;;5015427;28;20644;-61
2023/10/23 01:04:13;;;;;;;3.78;2.30;;;11.10;99.90;;;;;;5015471;28;20199;-57
2023/10/23 01:06:39;;;;;;;8.60;3.35;;;11.10;99.90;;;;;;5015421;28;20164;-57
2023/10/23 01:09:06;;;;;;;3.47;2.72;;;11.00;99.90;;;;;;5015263;28;20658;-60
2023/10/23 01:11:32;;;;;;;8.80;2.40;;;11.10;99.90;;;;;;5015455;28;20231;-57
2023/10/23 01:13:58;;;;;;;4.18;2.28;;;11.00;99.90;;;;;;5015717;28;20188;-56
2023/10/23 01:16:23;;;;;;;6.93;2.20;;;11.10;99.90;;;;;;5015195;28;20210;-57
2023/10/23 01:18:49;;;;;;;3.85;2.30;;;11.00;99.90;;;;;;5015221;28;20176;-59
2023/10/23 01:21:14;;;;;;;5.78;2.08;;;11.00;99.90;;;;;;5015052;28;20695;-54
2023/10/23 01:23:45;;;;;;;3.97;2.30;;;11.00;99.90;;;;;;5015077;28;20639;-59
2023/10/23 01:26:10;;;;;;;6.63;2.30;;;10.90;99.90;;;;;;5015105;28;20203;-56
2023/10/23 01:28:36;;;;;;;3.88;2.40;;;10.80;99.90;;;;;;5015069;28;20221;-57
2023/10/23 01:31:01;;;;;;;5.35;2.80;;;10.80;99.90;;;;;;5015243;28;20167;-58
2023/10/23 01:33:27;;;;;;;4.72;2.40;;;10.70;99.90;;;;;;5015150;28;20188;-55
2023/10/23 01:35:53;;;;;;;5.82;2.33;;;10.80;99.90;;;;;;5014842;28;20210;-59
2023/10/23 01:38:18;;;;;;;3.97;2.47;;;10.60;99.90;;;;;;5014817;28;20266;-54
2023/10/23 01:40:44;;;;;;;3.90;2.15;;;10.60;99.90;;;;;;5014759;28;20168;-54
2023/10/23 01:43:09;;;;;;;2.97;2.50;;;10.60;99.90;;;;;;5014728;28;20187;-59
2023/10/23 01:45:35;;;;;;;4.10;2.33;;;10.50;99.90;;;;;;5014636;28;20172;-54
2023/10/23 01:48:01;;;;;;;3.70;2.83;;;10.50;99.90;;;;;;5015083;28;20164;-58
2023/10/23 01:50:26;;;;;;;5.75;2.58;;;10.50;99.90;;;;;;5014580;28;20160;-59
2023/10/23 01:52:52;;;;;;;8.63;3.00;;;10.50;99.90;;;;;;5014464;28;20239;-59
2023/10/23 01:55:18;;;;;;;5.57;2.30;;;10.50;99.90;;;;;;5014802;28;20192;-57
2023/10/23 01:57:43;;;;;;;4.97;2.83;;;10.40;99.90;;;;;;5014656;28;20650;-59
2023/10/23 02:00:10;;;;;;;9.27;2.92;;;10.50;99.90;;;;;;5013852;28;20523;-57
2023/10/23 02:02:36;;;;;;;4.50;2.63;;;10.40;99.90;;;;;;5014639;28;20542;-59
2023/10/23 02:05:03;;;;;;;2.53;2.30;;;10.50;99.90;;;;;;5014297;28;20172;-56
2023/10/23 02:07:29;;;;;;;6.75;2.85;;;10.40;99.90;;;;;;5014741;28;20219;-59
2023/10/23 02:09:56;;;;;;;5.07;2.72;;;10.40;99.90;;;;;;5014093;28;20168;-57
2023/10/23 02:12:22;;;;;;;5.43;2.97;;;10.40;99.90;;;;;;5014155;28;20207;-60
2023/10/23 02:14:50;;;;;;;4.57;3.38;;;10.40;99.90;;;;;;5014156;28;20173;-59
2023/10/23 02:17:17;;;;;;;9.80;3.15;;;10.40;99.90;;;;;;5014350;28;20175;-57
2023/10/23 02:19:42;;;;;;;5.40;3.05;;;10.40;99.90;;;;;;5014084;28;20185;-57
2023/10/23 02:22:08;;;;;;;5.45;3.30;;;10.30;99.90;;;;;;5014264;28;20364;-61
2023/10/23 02:24:33;;;;;;;7.60;3.05;;;10.30;99.90;;;;;;5013968;28;20160;-56
2023/10/23 02:26:59;;;;;;;7.18;3.58;;;10.30;99.90;;;;;;5014370;28;20600;-59
2023/10/23 02:29:24;;;;;;;7.95;3.13;;;10.30;99.90;;;;;;5013854;28;20636;-59
2023/10/23 02:31:50;;;;;;;5.70;2.83;;;10.30;99.90;;;;;;5013739;28;20211;-57
2023/10/23 02:34:16;;;;;;;8.35;3.40;;;10.30;99.90;;;;;;5013772;28;20172;-60
2023/10/23 02:36:42;;;;;;;6.50;2.63;;;10.30;99.90;;;;;;5013606;28;20172;-61
2023/10/23 02:39:07;;;;;;;6.68;3.20;;;10.30;99.90;;;;;;5013770;28;20164;-62
2023/10/23 02:41:33;;;;;;;11.27;2.75;;;10.30;99.90;;;;;;5013613;28;20641;-62
2023/10/23 02:43:58;;;;;;;4.90;3.10;;;10.20;99.90;;;;;;5013978;28;20176;-61
2023/10/23 02:46:24;;;;;;;6.10;2.63;;;10.20;99.90;;;;;;5012296;28;20554;-61
2023/10/23 02:48:50;;;;;;;4.97;2.85;;;10.20;99.90;;;;;;5013523;28;20635;-57
2023/10/23 02:51:16;;;;;;;2.47;2.00;;;10.20;99.90;;;;;;5013634;28;20291;-61
2023/10/23 02:53:42;;;;;;;6.07;2.67;;;10.30;99.90;;;;;;5013643;28;20176;-62
2023/10/23 02:56:11;;;;;;;4.88;2.28;;;10.30;99.90;;;;;;5013687;28;20644;-60
2023/10/23 02:58:37;;;;;;;6.80;2.35;;;10.30;99.90;;;;;;5013305;28;20210;-62
2023/10/23 03:01:12;;;;;;;8.82;2.97;;;10.30;99.90;;;;;;5013293;28;20180;-62
2023/10/23 03:03:37;;;;;;;4.63;2.17;;;10.30;99.90;;;;;;5013213;28;20167;-58
2023/10/23 03:06:03;;;;;;;4.63;2.15;;;10.30;99.90;;;;;;5013142;28;20175;-62
2023/10/23 03:08:29;;;;;;;5.95;2.20;;;10.30;99.90;;;;;;5013453;28;20168;-56
2023/10/23 03:10:54;;;;;;;6.65;2.05;;;10.30;99.90;;;;;;5011553;28;20707;-58
2023/10/23 03:13:20;;;;;;;9.65;3.03;;;10.30;99.90;;;;;;5013052;28;20183;-59
2023/10/23 03:15:46;;;;;;;4.32;1.80;;;10.30;99.90;;;;;;5013006;28;20179;-61
2023/10/23 03:18:11;;;;;;;4.78;2.10;;;10.20;99.90;;;;;;5012899;28;20176;-54
2023/10/23 03:20:37;;;;;;;7.60;1.98;;;10.30;99.90;;;;;;5013135;28;20174;-57
2023/10/23 03:23:03;;;;;;;9.45;2.97;;;10.20;99.90;;;;;;5012918;28;20160;-59
2023/10/23 03:25:28;;;;;;;7.05;2.30;;;10.20;99.90;;;;;;5013520;28;20176;-62
2023/10/23 03:27:54;;;;;;;5.00;2.20;;;10.20;99.90;;;;;;5012979;28;20650;-61
2023/10/23 03:30:20;;;;;;;5.57;2.25;;;10.10;99.90;;;;;;5012671;28;20172;-60
2023/10/23 03:32:45;;;;;;;3.13;2.20;;;10.00;99.90;;;;;;5012446;28;20298;-60
2023/10/23 03:35:11;;;;;;;3.90;2.40;;;9.90;99.90;;;;;;5012669;28;20168;-62
2023/10/23 03:37:37;;;;;;;3.55;2.25;;;9.90;99.90;;;;;;5012620;28;20164;-59
2023/10/23 03:40:02;;;;;;;3.83;2.30;;;9.90;99.90;;;;;;5012789;28;20176;-57
2023/10/23 03:42:28;;;;;;;4.00;2.92;;;9.90;99.90;;;;;;5013124;28;20187;-58
2023/10/23 03:44:53;;;;;;;5.65;2.92;;;9.90;99.90;;;;;;5011194;28;20168;-61
2023/10/23 03:47:19;;;;;;;13.40;2.97;;;9.90;99.90;;;;;;5012475;28;20175;-61
2023/10/23 03:49:46;;;;;;;5.95;2.33;;;9.90;99.90;;;;;;5012373;28;20246;-60
2023/10/23 03:52:11;;;;;;;5.20;2.53;;;9.80;99.90;;;;;;5012527;28;20634;-62
2023/10/23 03:54:37;;;;;;;6.88;2.50;;;9.90;99.90;;;;;;5012563;28;20246;-60
2023/10/23 03:57:03;;;;;;;5.28;2.63;;;9.90;99.90;;;;;;5012480;28;20558;-59
2023/10/23 03:59:28;;;;;;;5.43;2.60;;;9.90;99.90;;;;;;5012600;28;20172;-63
2023/10/23 04:01:54;;;;;;;7.43;2.42;;;9.90;99.90;;;;;;5012141;28;20168;-61
2023/10/23 04:04:19;;;;;;;6.28;2.97;;;9.90;99.90;;;;;;5012122;28;20165;-61
2023/10/23 04:06:45;;;;;;;3.63;2.50;;;9.90;99.90;;;;;;5012090;28;20164;-59
2023/10/23 04:09:10;;;;;;;5.82;2.35;;;9.90;99.90;;;;;;5012091;28;20171;-61
2023/10/23 04:11:36;;;;;;;7.00;3.05;;;9.90;99.90;;;;;;5011847;28;20219;-64
2023/10/23 04:14:02;;;;;;;5.35;3.40;;;9.90;99.90;;;;;;5012254;28;20176;-57
2023/10/23 04:16:27;;;;;;;6.45;3.42;;;9.90;99.90;;;;;;5012516;28;20179;-60
2023/10/23 04:18:53;;;;;;;7.70;3.85;;;9.90;99.90;;;;;;5011773;28;20183;-55
2023/10/23 04:21:20;;;;;;;12.10;4.70;;;9.90;99.90;;;;;;5011691;28;20168;-54
2023/10/23 04:23:46;;;;;;;9.48;4.85;;;9.90;99.90;;;;;;5012121;28;20168;-54
2023/10/23 04:26:11;;;;;;;10.90;4.68;;;9.90;99.90;;;;;;5011823;28;20183;-54
2023/10/23 04:28:37;;;;;;;9.98;3.72;;;9.90;99.90;;;;;;5011812;28;20168;-57
2023/10/23 04:31:06;;;;;;;8.57;3.53;;;9.80;99.90;;;;;;5011683;28;20176;-54
2023/10/23 04:33:32;;;;;;;5.57;3.47;;;9.80;99.90;;;;;;5011830;28;20168;-53
2023/10/23 04:35:58;;;;;;;5.53;3.15;;;9.80;99.90;;;;;;5012439;28;20174;-53
2023/10/23 04:38:25;;;;;;;4.53;3.03;;;9.80;99.90;;;;;;5011398;28;20191;-53
2023/10/23 04:40:53;;;;;;;9.73;2.95;;;9.80;99.90;;;;;;5011371;28;20250;-60
2023/10/23 04:43:19;;;;;;;6.00;3.00;;;9.80;99.90;;;;;;5011559;28;20640;-58
2023/10/23 04:45:45;;;;;;;8.63;3.08;;;9.80;99.90;;;;;;5011625;28;20206;-59
2023/10/23 04:48:11;;;;;;;5.63;2.40;;;9.80;99.90;;;;;;5011656;28;20168;-60
2023/10/23 04:50:38;;;;;;;3.67;2.50;;;9.70;99.90;;;;;;5011813;28;20658;-58
2023/10/23 04:53:03;;;;;;;6.05;2.50;;;9.70;99.90;;;;;;5011470;28;20643;-59
2023/10/23 04:55:38;;;;;;;7.53;3.60;;;9.70;99.90;;;;;;5011960;28;20179;-61
2023/10/23 04:58:04;;;;;;;7.07;2.90;;;9.70;99.90;;;;;;5011401;28;20534;-63
2023/10/23 05:00:29;;;;;;;7.30;3.13;;;9.60;99.90;;;;;;5011937;28;20168;-54
2023/10/23 05:02:55;;;;;;;10.63;4.38;;;9.70;99.90;;;;;;5011447;28;20247;-53
2023/10/23 05:05:22;;;;;;;9.93;3.22;;;9.70;99.90;;;;;;5011539;28;20516;-53
2023/10/23 05:07:47;;;;;;;9.18;5.35;;;9.70;99.90;;;;;;5011419;28;20172;-54
2023/10/23 05:10:13;;;;;;;15.95;7.20;;;9.70;99.90;;;;;;5011421;28;20221;-54
2023/10/23 05:12:39;;;;;;;13.43;6.57;;;9.60;99.90;;;;;;5011324;28;20290;-54
2023/10/23 05:15:06;;;;;;;6.47;2.97;;;9.60;99.90;;;;;;5011660;28;20535;-54
2023/10/23 05:17:32;;;;;;;6.13;3.75;;;9.60;99.90;;;;;;5009942;28;20644;-54
2023/10/23 05:19:57;;;;;;;5.40;4.18;;;9.60;99.90;;;;;;5011961;28;20601;-54
2023/10/23 05:22:23;;;;;;;6.63;3.92;;;9.60;99.90;;;;;;5011271;28;20246;-54
2023/10/23 05:24:49;;;;;;;6.15;3.65;;;9.50;99.90;;;;;;5009929;28;20578;-55
2023/10/23 05:27:16;;;;;;;4.70;3.55;;;9.50;99.90;;;;;;5010982;28;20164;-54
2023/10/23 05:29:41;;;;;;;7.07;3.30;;;9.60;99.90;;;;;;5011314;28;20227;-53
2023/10/23 05:32:07;;;;;;;11.57;4.10;;;9.50;99.90;;;;;;5010964;28;20200;-53
2023/10/23 05:34:33;;;;;;;8.80;3.40;;;9.40;99.90;;;;;;5013091;28;20199;-55
2023/10/23 05:36:59;;;;;;;7.30;3.30;;;9.40;99.90;;;;;;5015054;28;20603;-54
2023/10/23 05:39:25;;;;;;;5.40;3.67;;;9.40;99.90;;;;;;5014973;28;20176;-54
2023/10/23 05:41:51;;;;;;;7.07;4.45;;;9.30;99.90;;;;;;5014757;28;20199;-67
2023/10/23 05:44:16;;;;;;;6.72;3.65;;;9.30;99.90;;;;;;5013337;28;20163;-59
2023/10/23 05:46:42;;;;;;;8.70;4.25;;;9.30;99.90;;;;;;5014584;28;20211;-67
2023/10/23 05:49:07;;;;;;;4.68;3.80;;;9.20;99.90;;;;;;5014595;28;20224;-65
2023/10/23 05:51:33;;;;;;;5.63;3.60;;;9.20;99.90;;;;;;5014494;28;20238;-64
2023/10/23 05:53:58;;;;;;;6.60;3.78;;;9.20;99.90;;;;;;5015197;28;20176;-62
2023/10/23 05:56:24;;;;;;;10.82;5.95;;;9.30;99.90;;;;;;5014623;28;20507;-64
2023/10/23 05:58:50;;;;;;;9.30;3.72;;;9.30;99.90;;;;;;5014340;28;20177;-60
2023/10/23 06:01:16;;;;;;;8.80;4.22;;;9.30;99.90;;;;;;5014696;28;20194;-61
2023/10/23 06:03:42;;;;;;;15.10;6.88;;;9.30;99.90;;;;;;5013024;28;20174;-67
2023/10/23 06:06:08;;;;;;;21.00;9.82;;;9.30;99.90;;;;;;5014539;28;20176;-57
2023/10/23 06:08:34;;;;;;;5.57;3.83;;;9.30;99.90;;;;;;5014190;28;20697;-67
2023/10/23 06:11:00;;;;;;;7.55;3.30;;;9.30;99.90;;;;;;5014314;28;20282;-66
2023/10/23 06:13:25;;;;;;;9.45;4.78;;;9.30;99.90;;;;;;5014160;28;20179;-65
2023/10/23 06:15:51;;;;;;;7.25;4.57;;;9.30;99.90;;;;;;5014072;28;20230;-64
2023/10/23 06:18:17;;;;;;;19.73;9.82;;;9.30;99.90;;;;;;5014304;28;20176;-63
2023/10/23 06:20:42;;;;;;;9.98;5.70;;;9.40;99.90;;;;;;5012754;28;20242;-65
2023/10/23 06:23:08;;;;;;;15.95;7.72;;;9.40;99.90;;;;;;5013897;28;20173;-66
2023/10/23 06:25:33;;;;;;;12.68;6.93;;;9.50;99.90;;;;;;5013730;28;20179;-62
2023/10/23 06:27:59;;;;;;;7.70;3.83;;;9.50;99.90;;;;;;5014403;28;20211;-64
2023/10/23 06:30:25;;;;;;;5.55;3.15;;;9.50;99.90;;;;;;5014130;28;20172;-54
2023/10/23 06:32:51;;;;;;;6.95;3.53;;;9.50;99.90;;;;;;5013701;28;20218;-54
2023/10/23 06:35:16;;;;;;;6.00;3.35;;;9.50;99.90;;;;;;5013794;28;20314;-54
2023/10/23 06:37:42;;;;;;;8.10;3.35;;;9.60;99.90;;;;;;5013733;28;20176;-56
2023/10/23 06:40:08;;;;;;;6.45;3.53;;;9.60;99.90;;;;;;5013658;28;20631;-54
2023/10/23 06:42:34;;;;;;;9.55;3.47;;;9.60;99.90;;;;;;5012326;28;20200;-55
2023/10/23 06:45:00;;;;;;;7.35;3.70;;;9.60;99.90;;;;;;5013992;28;20238;-54
2023/10/23 06:47:26;;;;;;;8.25;3.58;;;9.60;99.90;;;;;;5013805;28;20234;-54
2023/10/23 06:49:52;;;;;;;5.38;4.10;;;9.60;99.90;;;;;;5012120;28;20342;-54
2023/10/23 06:52:17;;;;;;;6.82;3.90;;;9.70;99.90;;;;;;5013368;28;20211;-59
2023/10/23 06:54:43;;;;;;;13.13;6.18;;;9.70;99.90;;;;;;5012247;28;20198;-54
2023/10/23 06:57:08;;;;;;;7.35;3.78;;;9.80;99.90;;;;;;5013303;28;20168;-63
2023/10/23 06:59:34;;;;;;;12.13;5.40;;;9.80;99.90;;;;;;5013245;28;20188;-58
2023/10/23 07:02:00;;;;;;;11.85;4.57;;;9.80;99.90;;;;;;5013601;28;20247;-55
2023/10/23 07:04:27;;;;;;;12.48;5.30;;;9.80;99.90;;;;;;5013693;28;20711;-54
2023/10/23 07:06:53;;;;;;;15.15;4.88;;;9.90;99.90;;;;;;5013158;28;20164;-57
2023/10/23 07:09:19;;;;;;;9.35;4.47;;;9.90;99.90;;;;;;5013145;28;20536;-55
2023/10/23 07:11:50;;;;;;;10.63;5.32;;;9.90;99.90;;;;;;5012772;28;20236;-55
2023/10/23 07:14:15;;;;;;;14.85;4.75;;;10.00;99.90;;;;;;5012967;28;20174;-59
2023/10/23 07:16:42;;;;;;;12.07;5.63;;;10.00;99.90;;;;;;5013203;28;20172;-55
2023/10/23 07:19:10;;;;;;;18.00;6.75;;;10.10;99.90;;;;;;5013155;28;20282;-57
2023/10/23 07:21:36;;;;;;;11.95;4.75;;;10.10;99.90;;;;;;5012774;28;20187;-54
2023/10/23 07:24:02;;;;;;;17.20;6.32;;;10.20;99.90;;;;;;5012874;28;20164;-55
2023/10/23 07:26:28;;;;;;;16.00;6.38;;;10.30;99.90;;;;;;5012030;28;20195;-58
2023/10/23 07:28:54;;;;;;;10.98;6.03;;;10.40;99.90;;;;;;5012745;28;20171;-54
2023/10/23 07:31:20;;;;;;;8.38;4.82;;;10.50;99.90;;;;;;5012705;28;20203;-59
2023/10/23 07:33:45;;;;;;;8.57;4.88;;;10.50;99.90;;;;;;5012639;28;20176;-64
2023/10/23 07:36:12;;;;;;;10.95;4.45;;;10.60;99.90;;;;;;5012658;28;20532;-68
2023/10/23 07:38:42;;;;;;;12.30;4.70;;;10.60;99.90;;;;;;5012567;28;20180;-62
2023/10/23 07:41:12;;;;;;;16.45;8.00;;;10.70;99.90;;;;;;5012591;28;20211;-66
2023/10/23 07:43:38;;;;;;;7.20;4.20;;;10.90;99.90;;;;;;5012806;28;20171;-64
2023/10/23 07:46:06;;;;;;;12.48;4.50;;;10.90;99.90;;;;;;5012636;28;20210;-54
2023/10/23 07:48:31;;;;;;;20.25;7.55;;;11.10;99.90;;;;;;5012655;28;20172;-54
2023/10/23 07:51:00;;;;;;;19.25;8.82;;;11.00;99.90;;;;;;5012817;28;20183;-57
2023/10/23 07:53:27;;;;;;;10.88;5.97;;;11.10;99.90;;;;;;5012356;28;20184;-63
2023/10/23 07:55:53;;;;;;;13.85;4.82;;;11.30;99.90;;;;;;5012084;28;20636;-67
2023/10/23 07:58:19;;;;;;;20.58;6.97;;;11.40;99.90;;;;;;5011913;28;20178;-67
2023/10/23 08:00:44;;;;;;;8.55;3.72;;;11.40;99.90;;;;;;5012412;28;20262;-57
2023/10/23 08:03:10;;;;;;;27.50;7.25;;;11.40;99.90;;;;;;5012149;28;20167;-54
2023/10/23 08:05:37;;;;;;;15.25;6.47;;;11.40;99.90;;;;;;5012151;28;20176;-53
2023/10/23 08:08:04;;;;;;;11.85;6.03;;;11.60;99.90;;;;;;5012111;28;20171;-56
2023/10/23 08:10:30;;;;;;;11.18;4.53;;;11.70;99.90;;;;;;5012436;28;20226;-54
2023/10/23 08:12:55;;;;;;;11.13;6.55;;;11.60;99.90;;;;;;5011966;28;20290;-54
2023/10/23 08:15:21;;;;;;;16.45;6.25;;;11.80;99.90;;;;;;5011961;28;20649;-54
2023/10/23 08:17:46;;;;;;;24.35;10.98;;;11.70;99.90;;;;;;5012208;28;20172;-54
2023/10/23 08:20:12;;;;;;;14.57;9.10;;;11.80;99.90;;;;;;5011821;28;20650;-55
2023/10/23 08:22:37;;;;;;;21.27;10.82;;;11.70;99.90;;;;;;5011740;28;20168;-55
2023/10/23 08:25:04;;;;;;;15.55;9.82;;;11.60;99.90;;;;;;5011732;28;20172;-52
2023/10/23 08:27:30;;;;;;;20.85;10.45;;;11.50;99.90;;;;;;5012131;28;20586;-53
2023/10/23 08:29:55;;;;;;;22.60;12.38;;;11.50;99.90;;;;;;5011766;28;20217;-52
2023/10/23 08:32:21;;;;;;;16.63;9.88;;;11.40;99.90;;;;;;5011595;28;20204;-53
2023/10/23 08:34:46;;;;;;;23.15;13.23;;;11.40;99.90;;;;;;5011696;28;20168;-53
2023/10/23 08:37:12;;;;;;;14.68;9.30;;;11.50;99.90;;;;;;5011966;28;20677;-53
2023/10/23 08:39:39;;;;;;;16.02;10.40;;;11.60;99.90;;;;;;5011657;28;20687;-52
2023/10/23 08:42:05;;;;;;;14.63;10.23;;;11.50;99.90;;;;;;5011888;28;20175;-52
2023/10/23 08:44:31;;;;;;;14.93;11.43;;;11.50;99.90;;;;;;5012074;28;20182;-53
2023/10/23 08:46:57;;;;;;;19.13;12.25;;;11.40;99.90;;;;;;5011963;28;20172;-52
2023/10/23 08:49:22;;;;;;;19.42;13.80;;;11.40;99.90;;;;;;5010350;28;20175;-54
2023/10/23 08:51:52;;;;;;;15.95;13.98;;;11.40;99.90;;;;;;5011496;28;20270;-52
2023/10/23 08:54:18;;;;;;;19.90;13.65;;;11.50;99.90;;;;;;5011506;28;20160;-52
2023/10/23 08:56:48;;;;;;;27.52;17.38;;;11.60;99.90;;;;;;5011485;28;20290;-52
2023/10/23 08:59:14;;;;;;;18.15;13.68;;;11.50;99.90;;;;;;5011592;28;20164;-63
2023/10/23 09:01:40;;;;;;;26.80;17.63;;;11.60;99.90;;;;;;5011455;28;20195;-65
2023/10/23 09:04:07;;;;;;;18.77;12.52;;;11.60;99.90;;;;;;5011526;28;20167;-55
2023/10/23 09:06:33;;;;;;;14.73;11.55;;;11.60;99.90;;;;;;5011388;28;20179;-56
2023/10/23 09:08:59;;;;;;;16.85;12.30;;;11.60;99.90;;;;;;5012979;28;20168;-53
2023/10/23 09:11:57;;;;;;;15.45;11.60;;;11.70;99.90;;;;;;5013593;28;20337;-61
2023/10/23 09:14:35;;;;;;;19.17;13.18;;;11.60;99.90;;;;;;4971359;28;20303;-60
2023/10/23 09:17:03;;;;;;;14.73;11.18;;;11.60;99.90;;;;;;5014671;28;20205;-52
2023/10/23 09:19:36;;;;;;;15.80;10.60;;;11.80;99.90;;;;;;5014675;28;20263;-55
2023/10/23 09:22:03;;;;;;;13.65;10.15;;;11.70;99.90;;;;;;5013815;28;20172;-53
2023/10/23 09:24:30;;;;;;;20.35;10.90;;;11.70;99.90;;;;;;5015771;28;20226;-55
2023/10/23 09:26:56;;;;;;;11.35;9.82;;;11.70;99.90;;;;;;5015281;28;20524;-53
2023/10/23 09:29:26;;;;;;;9.80;8.02;;;11.80;99.90;;;;;;5015054;28;20172;-56
2023/10/23 09:31:57;;;;;;;26.33;12.05;;;11.90;99.90;;;;;;5014803;28;20203;-53
2023/10/23 09:34:23;;;;;;;14.30;10.68;;;11.90;99.90;;;;;;5014878;28;20246;-60
2023/10/23 09:36:52;;;;;;;16.60;11.98;;;12.00;99.90;;;;;;5015133;28;20207;-53
2023/10/23 09:39:19;;;;;;;21.48;12.38;;;11.90;99.90;;;;;;5014785;28;20179;-53
2023/10/23 09:41:45;;;;;;;17.35;10.65;;;11.90;99.90;;;;;;5014708;28;20259;-58
2023/10/23 09:44:13;;;;;;;12.18;10.05;;;12.00;99.90;;;;;;5014670;28;20270;-53
2023/10/23 09:46:43;;;;;;;14.80;11.48;;;12.00;99.90;;;;;;5014560;28;20179;-53
2023/10/23 09:49:10;;;;;;;17.92;11.80;;;12.10;99.90;;;;;;5014387;28;20223;-59
2023/10/23 09:51:39;;;;;;;14.52;10.32;;;12.00;99.90;;;;;;5014464;28;20242;-53
2023/10/23 09:54:17;;;;;;;17.63;11.18;;;12.00;99.90;;;;;;5014354;28;20180;-61
2023/10/23 09:56:51;;;;;;;9.43;7.78;;;12.10;99.90;;;;;;5014018;28;20180;-65
2023/10/23 09:59:27;;;;;;;11.27;8.32;;;12.10;99.90;;;;;;5014407;28;20537;-53
2023/10/23 10:02:00;;;;;;;9.80;7.78;;;12.40;99.90;;;;;;5013535;28;20207;-60
2023/10/23 10:04:47;;;;;;;13.20;7.28;;;12.50;99.90;;;;;;5014908;28;20172;-53
2023/10/23 10:07:23;;;;;;;17.13;10.23;;;12.40;99.90;;;;;;5014134;28;20639;-53
2023/10/23 10:09:50;;;;;;;11.07;6.95;;;12.50;99.90;;;;;;5014179;28;20222;-53
2023/10/23 10:12:18;;;;;;;9.63;6.72;;;12.70;99.90;;;;;;5014329;28;20223;-52
2023/10/23 10:14:45;;;;;;;10.27;7.38;;;12.70;99.90;;;;;;5014306;28;20675;-52
2023/10/23 10:17:12;;;;;;;15.07;9.07;;;12.50;99.90;;;;;;5012647;28;20171;-53
2023/10/23 10:19:39;;;;;;;9.07;7.30;;;12.60;99.90;;;;;;5012598;28;20167;-53
2023/10/23 10:22:17;;;;;;;11.05;7.40;;;12.60;99.90;;;;;;5012752;28;20503;-53
2023/10/23 10:24:43;;;;;;;7.80;6.85;;;12.60;99.90;;;;;;5014016;28;20697;-52
2023/10/23 10:27:09;;;;;;;7.90;5.95;;;12.70;99.90;;;;;;5013901;28;20183;-55
2023/10/23 10:29:35;;;;;;;12.30;6.68;;;12.60;99.90;;;;;;5014135;28;20180;-53
2023/10/23 10:32:11;;;;;;;11.63;6.47;;;12.70;99.90;;;;;;5014187;28;20210;-54
2023/10/23 10:34:47;;;;;;;10.10;6.70;;;13.10;99.90;;;;;;5013851;28;20601;-53
2023/10/23 10:37:13;;;;;;;9.13;6.15;;;12.80;99.90;;;;;;5013610;28;20206;-55
2023/10/23 10:39:50;;;;;;;9.38;6.28;;;12.80;99.90;;;;;;5013489;28;20283;-53
2023/10/23 10:42:25;;;;;;;10.18;7.03;;;12.90;99.90;;;;;;5013464;28;20722;-53
2023/10/23 10:44:54;;;;;;;7.85;5.82;;;12.90;99.90;;;;;;5012374;28;20274;-53
2023/10/23 10:47:21;;;;;;;7.10;5.28;;;13.00;99.90;;;;;;5013188;28;20168;-54
2023/10/23 10:49:48;;;;;;;7.63;5.32;;;13.00;99.90;;;;;;5012510;28;20171;-53
2023/10/23 10:52:32;;;;;;;8.60;6.20;;;13.00;99.90;;;;;;5013170;28;20204;-51
2023/10/23 10:55:10;;;;;;;8.80;5.70;;;13.10;99.90;;;;;;5013703;28;20243;-54
2023/10/23 10:57:44;;;;;;;5.72;5.05;;;13.20;99.90;;;;;;5011804;28;20214;-54
2023/10/23 11:00:11;;;;;;;5.63;4.75;;;13.30;99.90;;;;;;5013096;28;20175;-55
2023/10/23 11:02:37;;;;;;;7.53;5.20;;;13.40;99.90;;;;;;5013036;28;20203;-55
2023/10/23 11:05:09;;;;;;;8.95;4.85;;;13.30;99.90;;;;;;5012782;28;20192;-52
2023/10/23 11:07:35;;;;;;;7.00;4.78;;;13.40;99.90;;;;;;5013032;28;20220;-52
2023/10/23 11:10:01;;;;;;;7.10;5.10;;;13.50;99.90;;;;;;5013255;28;20260;-52
2023/10/23 11:12:26;;;;;;;7.45;4.57;;;13.50;99.90;;;;;;5013104;28;20287;-52
2023/10/23 11:14:52;;;;;;;7.20;4.07;;;13.70;99.90;;;;;;5012922;28;20164;-52
2023/10/23 11:17:18;;;;;;;7.50;4.32;;;13.80;99.90;;;;;;5013003;28;20171;-56
2023/10/23 11:19:44;;;;;;;7.75;4.20;;;13.70;99.90;;;;;;5012527;28;20164;-52
2023/10/23 11:22:12;;;;;;;10.07;3.60;;;13.70;99.90;;;;;;5012712;28;20259;-55
2023/10/23 11:24:38;;;;;;;5.50;3.70;;;13.70;99.90;;;;;;5012702;28;20650;-53
2023/10/23 11:27:05;;;;;;;7.38;3.83;;;13.70;99.90;;;;;;5011362;28;20172;-54
2023/10/23 11:29:45;;;;;;;5.93;3.70;;;13.80;99.90;;;;;;5011481;28;20226;-52
2023/10/23 11:32:15;;;;;;;4.57;3.35;;;13.80;99.90;;;;;;5011990;28;20215;-60
2023/10/23 11:34:41;;;;;;;5.53;3.70;;;13.80;99.90;;;;;;5012133;28;20172;-53
2023/10/23 11:37:09;;;;;;;7.00;3.38;;;13.80;99.90;;;;;;5011655;28;20175;-54
2023/10/23 11:39:36;;;;;;;7.70;3.05;;;13.90;99.90;;;;;;5012576;28;20168;-55
2023/10/23 11:42:02;;;;;;;7.55;3.30;;;13.80;99.90;;;;;;5012402;28;20180;-55
2023/10/23 11:44:30;;;;;;;3.65;2.78;;;13.80;99.90;;;;;;5012924;28;20528;-52
2023/10/23 11:46:58;;;;;;;5.10;2.85;;;13.90;99.90;;;;;;5012794;28;20160;-54
2023/10/23 11:49:24;;;;;;;4.53;2.92;;;13.90;99.90;;;;;;5012345;28;20179;-58
2023/10/23 11:51:51;;;;;;;4.63;2.53;;;14.00;99.90;;;;;;5012247;28;20202;-53
2023/10/23 11:54:17;;;;;;;4.88;2.70;;;14.10;99.90;;;;;;5012244;28;20654;-54
2023/10/23 11:56:44;;;;;;;5.40;3.17;;;14.00;99.90;;;;;;5010978;28;20646;-52
2023/10/23 11:59:19;;;;;;;10.43;7.03;;;14.00;99.90;;;;;;5012105;28;20191;-52
2023/10/23 12:01:49;;;;;;;44.38;32.80;;;14.00;99.90;;;;;;5012168;28;20176;-55
2023/10/23 12:04:15;;;;;;;18.15;14.52;;;14.00;99.90;;;;;;5010824;28;20168;-62
2023/10/23 12:06:41;;;;;;;9.98;5.85;;;14.00;99.90;;;;;;5012151;28;20245;-56
2023/10/23 12:09:09;;;;;;;7.93;4.22;;;14.00;99.90;;;;;;5011997;28;20557;-59
2023/10/23 12:11:35;;;;;;;4.65;3.05;;;14.00;99.90;;;;;;5011835;28;20302;-64
2023/10/23 12:14:02;;;;;;;4.35;3.50;;;14.00;99.90;;;;;;5012452;28;20307;-52
2023/10/23 12:16:30;;;;;;;5.93;3.75;;;14.00;99.90;;;;;;5012497;28;20183;-58
2023/10/23 12:18:56;;;;;;;11.38;9.40;;;14.00;99.90;;;;;;5012511;28;20176;-65
2023/10/23 12:21:22;;;;;;;7.93;6.05;;;14.00;99.90;;;;;;5011889;28;20168;-64
2023/10/23 12:23:48;;;;;;;4.70;3.20;;;14.00;99.90;;;;;;5011820;28;20166;-53
2023/10/23 12:26:14;;;;;;;7.35;4.38;;;14.10;99.90;;;;;;5011826;28;20164;-64
2023/10/23 12:28:39;;;;;;;7.85;3.53;;;14.00;99.90;;;;;;5011975;28;20180;-65
2023/10/23 12:31:05;;;;;;;6.28;2.80;;;14.10;99.90;;;;;;5012085;28;20674;-62
2023/10/23 12:33:31;;;;;;;4.88;3.50;;;14.20;99.90;;;;;;5011676;28;20229;-62
2023/10/23 12:36:00;;;;;;;3.30;2.90;;;14.20;99.90;;;;;;5012179;28;20628;-62
2023/10/23 12:38:26;;;;;;;5.13;3.53;;;14.20;99.90;;;;;;5012399;28;20187;-62
2023/10/23 12:40:52;;;;;;;4.68;2.65;;;14.20;99.90;;;;;;5011697;28;20172;-59
2023/10/23 12:43:17;;;;;;;5.28;2.38;;;14.30;99.90;;;;;;5011468;28;20214;-64